sensor_id;sensor_type;location;lat;lon;timestamp;P1;durP1;ratioP1;P2;durP2;ratioP2
50872;SDS011;72604;40.088;18.346;2023-12-20T00:03:31;116.93;;;72.65;;
50872;SDS011;72604;40.088;18.346;2023-12-20T00:07:14;100.43;;;65.97;;
50872;SDS011;72604;40.088;18.346;2023-12-20T00:10:56;87.45;;;60.22;;
50872;SDS011;72604;40.088;18.346;2023-12-20T00:14:37;90.35;;;61.33;;
50872;SDS011;72604;40.088;18.346;2023-12-20T00:18:18;94.32;;;63.63;;
50872;SDS011;72604;40.088;18.346;2023-12-20T00:21:59;88.97;;;59.38;;
50872;SDS011;72604;40.088;18.346;2023-12-20T00:25:40;89.30;;;58.88;;
50872;SDS011;72604;40.088;18.346;2023-12-20T00:29:22;84.32;;;57.83;;
50872;SDS011;72604;40.088;18.346;2023-12-20T00:33:03;95.13;;;62.60;;
50872;SDS011;72604;40.088;18.346;2023-12-20T00:36:45;107.30;;;66.13;;
50872;SDS011;72604;40.088;18.346;2023-12-20T00:40:26;255.70;;;89.82;;
50872;SDS011;72604;40.088;18.346;2023-12-20T00:44:07;422.20;;;112.43;;
50872;SDS011;72604;40.088;18.346;2023-12-20T00:47:49;337.52;;;95.43;;
50872;SDS011;72604;40.088;18.346;2023-12-20T00:51:30;542.63;;;131.70;;
50872;SDS011;72604;40.088;18.346;2023-12-20T00:55:11;265.08;;;80.28;;
50872;SDS011;72604;40.088;18.346;2023-12-20T00:58:52;353.10;;;95.18;;
50872;SDS011;72604;40.088;18.346;2023-12-20T01:02:33;217.93;;;74.30;;
50872;SDS011;72604;40.088;18.346;2023-12-20T01:06:15;307.10;;;95.13;;
50872;SDS011;72604;40.088;18.346;2023-12-20T01:09:56;275.90;;;89.82;;
50872;SDS011;72604;40.088;18.346;2023-12-20T01:13:36;274.63;;;83.20;;
50872;SDS011;72604;40.088;18.346;2023-12-20T01:17:17;355.08;;;105.15;;
50872;SDS011;72604;40.088;18.346;2023-12-20T01:21:01;180.25;;;72.90;;
50872;SDS011;72604;40.088;18.346;2023-12-20T01:24:43;139.45;;;65.55;;
50872;SDS011;72604;40.088;18.346;2023-12-20T01:28:24;121.35;;;59.70;;
50872;SDS011;72604;40.088;18.346;2023-12-20T01:32:05;99.90;;;57.72;;
50872;SDS011;72604;40.088;18.346;2023-12-20T01:35:46;131.98;;;64.90;;
50872;SDS011;72604;40.088;18.346;2023-12-20T01:39:27;171.35;;;66.32;;
50872;SDS011;72604;40.088;18.346;2023-12-20T01:43:09;121.55;;;62.65;;
50872;SDS011;72604;40.088;18.346;2023-12-20T01:46:51;139.52;;;69.28;;
50872;SDS011;72604;40.088;18.346;2023-12-20T01:50:32;134.10;;;62.03;;
50872;SDS011;72604;40.088;18.346;2023-12-20T01:54:15;149.65;;;69.35;;
50872;SDS011;72604;40.088;18.346;2023-12-20T01:57:57;102.30;;;56.33;;
50872;SDS011;72604;40.088;18.346;2023-12-20T02:01:39;77.43;;;48.65;;
50872;SDS011;72604;40.088;18.346;2023-12-20T02:05:20;79.63;;;49.08;;
50872;SDS011;72604;40.088;18.346;2023-12-20T02:09:01;112.47;;;59.45;;
50872;SDS011;72604;40.088;18.346;2023-12-20T02:12:42;155.75;;;56.80;;
50872;SDS011;72604;40.088;18.346;2023-12-20T02:16:23;213.68;;;70.68;;
50872;SDS011;72604;40.088;18.346;2023-12-20T02:20:06;126.10;;;55.50;;
50872;SDS011;72604;40.088;18.346;2023-12-20T02:23:48;167.80;;;62.30;;
50872;SDS011;72604;40.088;18.346;2023-12-20T02:27:29;186.35;;;65.43;;
50872;SDS011;72604;40.088;18.346;2023-12-20T02:31:10;214.27;;;60.03;;
50872;SDS011;72604;40.088;18.346;2023-12-20T02:34:51;259.17;;;72.32;;
50872;SDS011;72604;40.088;18.346;2023-12-20T02:38:32;299.08;;;67.15;;
50872;SDS011;72604;40.088;18.346;2023-12-20T02:42:14;351.88;;;74.95;;
50872;SDS011;72604;40.088;18.346;2023-12-20T02:45:55;276.98;;;72.47;;
50872;SDS011;72604;40.088;18.346;2023-12-20T02:49:36;371.23;;;77.93;;
50872;SDS011;72604;40.088;18.346;2023-12-20T02:53:17;370.80;;;82.85;;
50872;SDS011;72604;40.088;18.346;2023-12-20T02:56:58;388.10;;;89.97;;
50872;SDS011;72604;40.088;18.346;2023-12-20T03:00:40;406.25;;;89.75;;
50872;SDS011;72604;40.088;18.346;2023-12-20T03:04:21;317.67;;;77.07;;
50872;SDS011;72604;40.088;18.346;2023-12-20T03:08:02;294.30;;;72.25;;
50872;SDS011;72604;40.088;18.346;2023-12-20T03:11:43;326.75;;;85.57;;
50872;SDS011;72604;40.088;18.346;2023-12-20T03:15:24;345.52;;;84.13;;
50872;SDS011;72604;40.088;18.346;2023-12-20T03:19:06;296.95;;;70.10;;
50872;SDS011;72604;40.088;18.346;2023-12-20T03:22:47;346.95;;;72.93;;
50872;SDS011;72604;40.088;18.346;2023-12-20T03:26:27;274.73;;;69.70;;
50872;SDS011;72604;40.088;18.346;2023-12-20T03:30:08;199.05;;;57.67;;
50872;SDS011;72604;40.088;18.346;2023-12-20T03:33:49;276.70;;;58.78;;
50872;SDS011;72604;40.088;18.346;2023-12-20T03:37:33;349.85;;;68.28;;
50872;SDS011;72604;40.088;18.346;2023-12-20T03:41:14;295.17;;;63.00;;
50872;SDS011;72604;40.088;18.346;2023-12-20T03:44:55;407.67;;;80.90;;
50872;SDS011;72604;40.088;18.346;2023-12-20T03:48:35;373.95;;;78.20;;
50872;SDS011;72604;40.088;18.346;2023-12-20T03:52:16;322.63;;;77.82;;
50872;SDS011;72604;40.088;18.346;2023-12-20T03:55:58;248.10;;;64.70;;
50872;SDS011;72604;40.088;18.346;2023-12-20T03:59:39;346.95;;;82.30;;
50872;SDS011;72604;40.088;18.346;2023-12-20T04:03:20;278.42;;;73.00;;
50872;SDS011;72604;40.088;18.346;2023-12-20T04:07:00;370.15;;;88.20;;
50872;SDS011;72604;40.088;18.346;2023-12-20T04:10:41;452.45;;;105.28;;
50872;SDS011;72604;40.088;18.346;2023-12-20T04:14:23;275.55;;;69.95;;
50872;SDS011;72604;40.088;18.346;2023-12-20T04:18:05;350.73;;;76.28;;
50872;SDS011;72604;40.088;18.346;2023-12-20T04:21:46;473.13;;;93.47;;
50872;SDS011;72604;40.088;18.346;2023-12-20T04:25:26;459.67;;;89.63;;
50872;SDS011;72604;40.088;18.346;2023-12-20T04:29:07;495.17;;;96.43;;
50872;SDS011;72604;40.088;18.346;2023-12-20T04:32:49;471.73;;;88.82;;
50872;SDS011;72604;40.088;18.346;2023-12-20T04:36:30;413.30;;;79.43;;
50872;SDS011;72604;40.088;18.346;2023-12-20T04:40:11;370.88;;;75.07;;
50872;SDS011;72604;40.088;18.346;2023-12-20T04:43:53;278.83;;;73.05;;
50872;SDS011;72604;40.088;18.346;2023-12-20T04:47:33;239.80;;;71.72;;
50872;SDS011;72604;40.088;18.346;2023-12-20T04:51:16;202.63;;;66.20;;
50872;SDS011;72604;40.088;18.346;2023-12-20T04:54:57;335.27;;;80.97;;
50872;SDS011;72604;40.088;18.346;2023-12-20T04:58:39;297.25;;;69.05;;
50872;SDS011;72604;40.088;18.346;2023-12-20T05:02:20;438.42;;;94.55;;
50872;SDS011;72604;40.088;18.346;2023-12-20T05:06:00;370.02;;;86.45;;
50872;SDS011;72604;40.088;18.346;2023-12-20T05:09:43;566.95;;;102.10;;
50872;SDS011;72604;40.088;18.346;2023-12-20T05:13:23;577.22;;;98.65;;
50872;SDS011;72604;40.088;18.346;2023-12-20T05:17:07;495.73;;;90.40;;
50872;SDS011;72604;40.088;18.346;2023-12-20T05:20:47;500.27;;;93.97;;
50872;SDS011;72604;40.088;18.346;2023-12-20T05:24:28;285.85;;;59.20;;
50872;SDS011;72604;40.088;18.346;2023-12-20T05:28:11;452.20;;;74.70;;
50872;SDS011;72604;40.088;18.346;2023-12-20T05:31:51;502.70;;;78.15;;
50872;SDS011;72604;40.088;18.346;2023-12-20T05:35:32;435.70;;;67.80;;
50872;SDS011;72604;40.088;18.346;2023-12-20T05:39:13;606.10;;;103.60;;
50872;SDS011;72604;40.088;18.346;2023-12-20T05:42:54;535.38;;;92.28;;
50872;SDS011;72604;40.088;18.346;2023-12-20T05:46:37;488.02;;;71.07;;
50872;SDS011;72604;40.088;18.346;2023-12-20T05:50:19;502.00;;;75.75;;
50872;SDS011;72604;40.088;18.346;2023-12-20T05:54:01;348.15;;;62.22;;
50872;SDS011;72604;40.088;18.346;2023-12-20T05:57:42;355.23;;;57.20;;
50872;SDS011;72604;40.088;18.346;2023-12-20T06:01:24;423.58;;;76.28;;
50872;SDS011;72604;40.088;18.346;2023-12-20T06:05:07;387.35;;;61.15;;
50872;SDS011;72604;40.088;18.346;2023-12-20T06:08:48;317.20;;;55.35;;
50872;SDS011;72604;40.088;18.346;2023-12-20T06:12:29;222.63;;;41.40;;
50872;SDS011;72604;40.088;18.346;2023-12-20T06:16:11;337.92;;;61.72;;
50872;SDS011;72604;40.088;18.346;2023-12-20T06:19:52;247.57;;;52.75;;
50872;SDS011;72604;40.088;18.346;2023-12-20T06:23:35;266.50;;;53.15;;
50872;SDS011;72604;40.088;18.346;2023-12-20T06:27:16;258.65;;;51.78;;
50872;SDS011;72604;40.088;18.346;2023-12-20T06:30:57;199.57;;;43.25;;
50872;SDS011;72604;40.088;18.346;2023-12-20T06:34:40;177.95;;;35.83;;
50872;SDS011;72604;40.088;18.346;2023-12-20T06:38:21;182.25;;;38.10;;
50872;SDS011;72604;40.088;18.346;2023-12-20T06:42:04;159.30;;;39.42;;
50872;SDS011;72604;40.088;18.346;2023-12-20T06:45:45;275.33;;;74.88;;
50872;SDS011;72604;40.088;18.346;2023-12-20T06:49:25;241.32;;;45.28;;
50872;SDS011;72604;40.088;18.346;2023-12-20T06:53:06;262.30;;;51.33;;
50872;SDS011;72604;40.088;18.346;2023-12-20T06:56:48;202.77;;;48.83;;
50872;SDS011;72604;40.088;18.346;2023-12-20T07:00:30;198.02;;;40.10;;
50872;SDS011;72604;40.088;18.346;2023-12-20T07:04:12;188.00;;;46.58;;
50872;SDS011;72604;40.088;18.346;2023-12-20T07:07:53;222.90;;;33.92;;
50872;SDS011;72604;40.088;18.346;2023-12-20T07:11:34;273.95;;;35.78;;
50872;SDS011;72604;40.088;18.346;2023-12-20T07:15:15;283.60;;;29.73;;
50872;SDS011;72604;40.088;18.346;2023-12-20T07:18:58;254.13;;;33.10;;
50872;SDS011;72604;40.088;18.346;2023-12-20T07:22:44;292.27;;;45.35;;
50872;SDS011;72604;40.088;18.346;2023-12-20T07:26:25;347.17;;;65.18;;
50872;SDS011;72604;40.088;18.346;2023-12-20T07:30:06;337.95;;;77.57;;
50872;SDS011;72604;40.088;18.346;2023-12-20T07:33:48;268.30;;;48.80;;
50872;SDS011;72604;40.088;18.346;2023-12-20T07:37:32;212.18;;;38.28;;
50872;SDS011;72604;40.088;18.346;2023-12-20T07:41:13;238.05;;;27.63;;
50872;SDS011;72604;40.088;18.346;2023-12-20T07:44:55;216.88;;;31.73;;
50872;SDS011;72604;40.088;18.346;2023-12-20T07:48:37;205.57;;;26.33;;
50872;SDS011;72604;40.088;18.346;2023-12-20T07:52:19;195.07;;;24.60;;
50872;SDS011;72604;40.088;18.346;2023-12-20T07:56:03;232.88;;;22.35;;
50872;SDS011;72604;40.088;18.346;2023-12-20T07:59:54;226.65;;;19.80;;
50872;SDS011;72604;40.088;18.346;2023-12-20T08:03:34;233.70;;;18.92;;
50872;SDS011;72604;40.088;18.346;2023-12-20T08:07:16;202.38;;;15.88;;
50872;SDS011;72604;40.088;18.346;2023-12-20T08:10:56;176.05;;;13.90;;
50872;SDS011;72604;40.088;18.346;2023-12-20T08:14:41;151.20;;;12.80;;
50872;SDS011;72604;40.088;18.346;2023-12-20T08:18:21;154.38;;;16.98;;
50872;SDS011;72604;40.088;18.346;2023-12-20T08:22:03;258.10;;;25.88;;
50872;SDS011;72604;40.088;18.346;2023-12-20T08:25:44;240.93;;;18.40;;
50872;SDS011;72604;40.088;18.346;2023-12-20T08:29:25;191.02;;;16.48;;
50872;SDS011;72604;40.088;18.346;2023-12-20T08:33:07;212.45;;;18.08;;
50872;SDS011;72604;40.088;18.346;2023-12-20T08:36:51;219.48;;;20.88;;
50872;SDS011;72604;40.088;18.346;2023-12-20T08:40:32;201.30;;;38.42;;
50872;SDS011;72604;40.088;18.346;2023-12-20T08:44:13;102.57;;;13.10;;
50872;SDS011;72604;40.088;18.346;2023-12-20T08:47:54;106.65;;;11.50;;
50872;SDS011;72604;40.088;18.346;2023-12-20T08:51:37;118.45;;;16.92;;
50872;SDS011;72604;40.088;18.346;2023-12-20T08:55:21;69.25;;;11.77;;
50872;SDS011;72604;40.088;18.346;2023-12-20T08:59:02;86.32;;;14.90;;
50872;SDS011;72604;40.088;18.346;2023-12-20T09:02:43;139.50;;;33.15;;
50872;SDS011;72604;40.088;18.346;2023-12-20T09:06:24;89.32;;;17.42;;
50872;SDS011;72604;40.088;18.346;2023-12-20T09:10:07;93.65;;;19.30;;
50872;SDS011;72604;40.088;18.346;2023-12-20T09:13:48;70.13;;;15.35;;
50872;SDS011;72604;40.088;18.346;2023-12-20T09:17:29;69.68;;;23.08;;
50872;SDS011;72604;40.088;18.346;2023-12-20T09:21:12;84.80;;;16.73;;
50872;SDS011;72604;40.088;18.346;2023-12-20T09:24:53;37.53;;;16.15;;
50872;SDS011;72604;40.088;18.346;2023-12-20T09:28:36;40.40;;;17.02;;
50872;SDS011;72604;40.088;18.346;2023-12-20T09:32:18;30.80;;;17.45;;
50872;SDS011;72604;40.088;18.346;2023-12-20T09:36:00;21.83;;;16.80;;
50872;SDS011;72604;40.088;18.346;2023-12-20T09:39:42;18.55;;;15.38;;
50872;SDS011;72604;40.088;18.346;2023-12-20T09:43:23;21.58;;;19.27;;
50872;SDS011;72604;40.088;18.346;2023-12-20T09:47:06;22.27;;;19.77;;
50872;SDS011;72604;40.088;18.346;2023-12-20T09:50:47;21.98;;;19.27;;
50872;SDS011;72604;40.088;18.346;2023-12-20T09:54:30;14.57;;;12.80;;
50872;SDS011;72604;40.088;18.346;2023-12-20T09:58:11;18.10;;;14.32;;
50872;SDS011;72604;40.088;18.346;2023-12-20T10:01:52;18.63;;;15.20;;
50872;SDS011;72604;40.088;18.346;2023-12-20T10:05:38;30.00;;;26.77;;
50872;SDS011;72604;40.088;18.346;2023-12-20T10:09:20;41.67;;;32.47;;
50872;SDS011;72604;40.088;18.346;2023-12-20T10:13:01;27.83;;;22.92;;
50872;SDS011;72604;40.088;18.346;2023-12-20T10:16:43;29.00;;;22.90;;
50872;SDS011;72604;40.088;18.346;2023-12-20T10:20:24;6.22;;;5.32;;
50872;SDS011;72604;40.088;18.346;2023-12-20T10:24:06;6.75;;;4.30;;
50872;SDS011;72604;40.088;18.346;2023-12-20T10:27:49;13.02;;;7.93;;
50872;SDS011;72604;40.088;18.346;2023-12-20T10:31:31;6.03;;;5.43;;
50872;SDS011;72604;40.088;18.346;2023-12-20T10:35:13;4.70;;;4.30;;
50872;SDS011;72604;40.088;18.346;2023-12-20T10:38:54;4.90;;;4.38;;
50872;SDS011;72604;40.088;18.346;2023-12-20T10:42:37;7.05;;;4.47;;
50872;SDS011;72604;40.088;18.346;2023-12-20T10:50:49;5.70;;;4.68;;
50872;SDS011;72604;40.088;18.346;2023-12-20T10:54:31;5.38;;;4.10;;
50872;SDS011;72604;40.088;18.346;2023-12-20T10:58:13;5.13;;;3.75;;
50872;SDS011;72604;40.088;18.346;2023-12-20T11:01:54;6.43;;;4.60;;
50872;SDS011;72604;40.088;18.346;2023-12-20T11:05:38;7.22;;;6.53;;
50872;SDS011;72604;40.088;18.346;2023-12-20T11:09:23;7.90;;;6.38;;
50872;SDS011;72604;40.088;18.346;2023-12-20T11:13:06;6.20;;;5.47;;
50872;SDS011;72604;40.088;18.346;2023-12-20T11:16:51;8.75;;;6.38;;
50872;SDS011;72604;40.088;18.346;2023-12-20T11:20:45;9.88;;;8.27;;
50872;SDS011;72604;40.088;18.346;2023-12-20T11:24:26;9.20;;;5.57;;
50872;SDS011;72604;40.088;18.346;2023-12-20T11:28:07;5.25;;;3.90;;
50872;SDS011;72604;40.088;18.346;2023-12-20T11:31:49;4.10;;;3.70;;
50872;SDS011;72604;40.088;18.346;2023-12-20T11:35:31;5.55;;;4.35;;
50872;SDS011;72604;40.088;18.346;2023-12-20T11:39:12;4.30;;;3.65;;
50872;SDS011;72604;40.088;18.346;2023-12-20T11:42:58;7.00;;;4.40;;
50872;SDS011;72604;40.088;18.346;2023-12-20T11:46:39;6.38;;;4.22;;
50872;SDS011;72604;40.088;18.346;2023-12-20T11:50:21;21.08;;;14.07;;
50872;SDS011;72604;40.088;18.346;2023-12-20T11:54:04;6.55;;;4.25;;
50872;SDS011;72604;40.088;18.346;2023-12-20T11:57:46;9.55;;;5.25;;
50872;SDS011;72604;40.088;18.346;2023-12-20T12:01:28;8.60;;;6.80;;
50872;SDS011;72604;40.088;18.346;2023-12-20T12:05:09;12.77;;;8.45;;
50872;SDS011;72604;40.088;18.346;2023-12-20T12:08:50;6.18;;;5.10;;
50872;SDS011;72604;40.088;18.346;2023-12-20T12:12:33;5.20;;;4.30;;
50872;SDS011;72604;40.088;18.346;2023-12-20T12:16:16;5.00;;;3.50;;
50872;SDS011;72604;40.088;18.346;2023-12-20T12:20:01;9.88;;;5.53;;
50872;SDS011;72604;40.088;18.346;2023-12-20T12:23:42;7.55;;;5.38;;
50872;SDS011;72604;40.088;18.346;2023-12-20T12:27:23;6.63;;;4.28;;
50872;SDS011;72604;40.088;18.346;2023-12-20T12:31:05;5.95;;;4.13;;
50872;SDS011;72604;40.088;18.346;2023-12-20T12:34:46;7.63;;;4.60;;
50872;SDS011;72604;40.088;18.346;2023-12-20T12:38:27;6.20;;;4.35;;
50872;SDS011;72604;40.088;18.346;2023-12-20T12:42:08;10.27;;;6.82;;
50872;SDS011;72604;40.088;18.346;2023-12-20T12:45:49;6.85;;;6.15;;
50872;SDS011;72604;40.088;18.346;2023-12-20T12:49:32;6.53;;;5.38;;
50872;SDS011;72604;40.088;18.346;2023-12-20T12:53:12;5.63;;;3.60;;
50872;SDS011;72604;40.088;18.346;2023-12-20T12:56:53;6.43;;;4.00;;
50872;SDS011;72604;40.088;18.346;2023-12-20T13:00:34;4.72;;;3.22;;
50872;SDS011;72604;40.088;18.346;2023-12-20T13:04:16;4.88;;;3.35;;
50872;SDS011;72604;40.088;18.346;2023-12-20T13:07:58;6.57;;;5.80;;
50872;SDS011;72604;40.088;18.346;2023-12-20T13:11:39;3.85;;;2.78;;
50872;SDS011;72604;40.088;18.346;2023-12-20T13:15:20;4.97;;;3.38;;
50872;SDS011;72604;40.088;18.346;2023-12-20T13:19:01;3.63;;;3.05;;
50872;SDS011;72604;40.088;18.346;2023-12-20T13:22:42;3.03;;;2.45;;
50872;SDS011;72604;40.088;18.346;2023-12-20T13:26:24;4.15;;;2.53;;
50872;SDS011;72604;40.088;18.346;2023-12-20T13:30:06;3.65;;;2.80;;
50872;SDS011;72604;40.088;18.346;2023-12-20T13:33:48;3.65;;;2.90;;
50872;SDS011;72604;40.088;18.346;2023-12-20T13:37:30;5.43;;;3.08;;
50872;SDS011;72604;40.088;18.346;2023-12-20T13:41:11;3.80;;;3.03;;
50872;SDS011;72604;40.088;18.346;2023-12-20T13:44:53;3.38;;;3.03;;
50872;SDS011;72604;40.088;18.346;2023-12-20T13:48:35;4.63;;;2.42;;
50872;SDS011;72604;40.088;18.346;2023-12-20T13:52:17;4.25;;;3.20;;
50872;SDS011;72604;40.088;18.346;2023-12-20T13:55:58;4.93;;;3.38;;
50872;SDS011;72604;40.088;18.346;2023-12-20T13:59:39;4.78;;;3.10;;
50872;SDS011;72604;40.088;18.346;2023-12-20T14:03:21;6.28;;;3.30;;
50872;SDS011;72604;40.088;18.346;2023-12-20T14:07:02;3.88;;;2.90;;
50872;SDS011;72604;40.088;18.346;2023-12-20T14:10:44;4.55;;;3.65;;
50872;SDS011;72604;40.088;18.346;2023-12-20T14:14:25;7.88;;;5.55;;
50872;SDS011;72604;40.088;18.346;2023-12-20T14:18:06;15.60;;;9.23;;
50872;SDS011;72604;40.088;18.346;2023-12-20T14:21:48;7.70;;;5.85;;
50872;SDS011;72604;40.088;18.346;2023-12-20T14:25:30;14.48;;;10.23;;
50872;SDS011;72604;40.088;18.346;2023-12-20T14:29:14;15.63;;;14.02;;
50872;SDS011;72604;40.088;18.346;2023-12-20T14:32:55;6.53;;;4.78;;
50872;SDS011;72604;40.088;18.346;2023-12-20T14:36:36;7.53;;;5.78;;
50872;SDS011;72604;40.088;18.346;2023-12-20T14:40:19;40.05;;;25.23;;
50872;SDS011;72604;40.088;18.346;2023-12-20T14:44:00;41.00;;;25.88;;
50872;SDS011;72604;40.088;18.346;2023-12-20T14:47:44;14.70;;;8.90;;
50872;SDS011;72604;40.088;18.346;2023-12-20T14:51:27;30.20;;;18.70;;
50872;SDS011;72604;40.088;18.346;2023-12-20T14:55:09;80.75;;;45.50;;
50872;SDS011;72604;40.088;18.346;2023-12-20T14:58:51;80.05;;;42.25;;
50872;SDS011;72604;40.088;18.346;2023-12-20T15:02:32;75.05;;;40.67;;
50872;SDS011;72604;40.088;18.346;2023-12-20T15:06:13;100.32;;;54.90;;
50872;SDS011;72604;40.088;18.346;2023-12-20T15:09:54;123.63;;;69.07;;
50872;SDS011;72604;40.088;18.346;2023-12-20T15:13:35;116.80;;;64.60;;
50872;SDS011;72604;40.088;18.346;2023-12-20T15:17:18;86.45;;;50.33;;
50872;SDS011;72604;40.088;18.346;2023-12-20T15:21:00;66.07;;;41.05;;
50872;SDS011;72604;40.088;18.346;2023-12-20T15:24:41;89.70;;;51.92;;
50872;SDS011;72604;40.088;18.346;2023-12-20T15:28:24;60.97;;;39.63;;
50872;SDS011;72604;40.088;18.346;2023-12-20T15:32:05;88.75;;;57.10;;
50872;SDS011;72604;40.088;18.346;2023-12-20T15:35:48;73.40;;;51.25;;
50872;SDS011;72604;40.088;18.346;2023-12-20T15:39:29;55.58;;;39.10;;
50872;SDS011;72604;40.088;18.346;2023-12-20T15:43:11;37.53;;;30.85;;
50872;SDS011;72604;40.088;18.346;2023-12-20T15:46:52;185.23;;;124.70;;
50872;SDS011;72604;40.088;18.346;2023-12-20T15:50:33;193.43;;;103.97;;
50872;SDS011;72604;40.088;18.346;2023-12-20T15:54:16;58.60;;;43.58;;
50872;SDS011;72604;40.088;18.346;2023-12-20T15:57:57;23.83;;;18.95;;
50872;SDS011;72604;40.088;18.346;2023-12-20T16:01:38;29.63;;;26.42;;
50872;SDS011;72604;40.088;18.346;2023-12-20T16:05:20;24.67;;;19.38;;
50872;SDS011;72604;40.088;18.346;2023-12-20T16:09:01;112.68;;;53.72;;
50872;SDS011;72604;40.088;18.346;2023-12-20T16:12:44;123.22;;;58.45;;
50872;SDS011;72604;40.088;18.346;2023-12-20T16:16:25;78.18;;;46.58;;
50872;SDS011;72604;40.088;18.346;2023-12-20T16:20:07;128.23;;;71.70;;
50872;SDS011;72604;40.088;18.346;2023-12-20T16:23:49;120.22;;;71.15;;
50872;SDS011;72604;40.088;18.346;2023-12-20T16:27:29;147.50;;;82.18;;
50872;SDS011;72604;40.088;18.346;2023-12-20T16:31:11;108.68;;;57.33;;
50872;SDS011;72604;40.088;18.346;2023-12-20T16:34:53;75.60;;;45.53;;
50872;SDS011;72604;40.088;18.346;2023-12-20T16:38:34;60.35;;;36.88;;
50872;SDS011;72604;40.088;18.346;2023-12-20T16:42:15;39.75;;;24.35;;
50872;SDS011;72604;40.088;18.346;2023-12-20T16:45:57;97.18;;;41.38;;
50872;SDS011;72604;40.088;18.346;2023-12-20T16:49:40;71.22;;;35.88;;
50872;SDS011;72604;40.088;18.346;2023-12-20T16:53:21;58.08;;;34.42;;
50872;SDS011;72604;40.088;18.346;2023-12-20T16:57:02;39.00;;;24.80;;
50872;SDS011;72604;40.088;18.346;2023-12-20T17:00:43;54.03;;;31.88;;
50872;SDS011;72604;40.088;18.346;2023-12-20T17:04:24;78.60;;;52.47;;
50872;SDS011;72604;40.088;18.346;2023-12-20T17:08:06;127.40;;;81.95;;
50872;SDS011;72604;40.088;18.346;2023-12-20T17:11:47;83.85;;;54.25;;
50872;SDS011;72604;40.088;18.346;2023-12-20T17:15:28;57.45;;;38.33;;
50872;SDS011;72604;40.088;18.346;2023-12-20T17:19:10;89.60;;;53.67;;
50872;SDS011;72604;40.088;18.346;2023-12-20T17:22:51;88.65;;;57.42;;
50872;SDS011;72604;40.088;18.346;2023-12-20T17:26:33;69.13;;;43.65;;
50872;SDS011;72604;40.088;18.346;2023-12-20T17:30:15;73.50;;;46.03;;
50872;SDS011;72604;40.088;18.346;2023-12-20T17:33:56;72.88;;;46.45;;
50872;SDS011;72604;40.088;18.346;2023-12-20T17:37:37;69.43;;;47.28;;
50872;SDS011;72604;40.088;18.346;2023-12-20T17:41:18;81.25;;;53.42;;
50872;SDS011;72604;40.088;18.346;2023-12-20T17:45:01;89.35;;;56.95;;
50872;SDS011;72604;40.088;18.346;2023-12-20T17:48:42;84.10;;;59.25;;
50872;SDS011;72604;40.088;18.346;2023-12-20T17:52:23;87.28;;;60.08;;
50872;SDS011;72604;40.088;18.346;2023-12-20T17:56:04;96.82;;;70.53;;
50872;SDS011;72604;40.088;18.346;2023-12-20T17:59:45;222.20;;;140.73;;
50872;SDS011;72604;40.088;18.346;2023-12-20T18:03:27;341.80;;;204.00;;
50872;SDS011;72604;40.088;18.346;2023-12-20T18:07:08;166.80;;;110.57;;
50872;SDS011;72604;40.088;18.346;2023-12-20T18:10:50;62.50;;;42.55;;
50872;SDS011;72604;40.088;18.346;2023-12-20T18:14:30;75.70;;;46.42;;
50872;SDS011;72604;40.088;18.346;2023-12-20T18:18:11;89.07;;;61.47;;
50872;SDS011;72604;40.088;18.346;2023-12-20T18:21:53;93.38;;;68.13;;
50872;SDS011;72604;40.088;18.346;2023-12-20T18:25:35;74.15;;;51.67;;
50872;SDS011;72604;40.088;18.346;2023-12-20T18:29:16;70.57;;;48.35;;
50872;SDS011;72604;40.088;18.346;2023-12-20T18:32:58;84.28;;;55.30;;
50872;SDS011;72604;40.088;18.346;2023-12-20T18:36:39;79.25;;;48.05;;
50872;SDS011;72604;40.088;18.346;2023-12-20T18:40:21;74.13;;;48.58;;
50872;SDS011;72604;40.088;18.346;2023-12-20T18:44:06;67.03;;;47.03;;
50872;SDS011;72604;40.088;18.346;2023-12-20T18:47:47;64.13;;;41.65;;
50872;SDS011;72604;40.088;18.346;2023-12-20T18:51:29;65.75;;;37.55;;
50872;SDS011;72604;40.088;18.346;2023-12-20T18:55:09;157.50;;;64.78;;
50872;SDS011;72604;40.088;18.346;2023-12-20T18:58:51;131.70;;;56.53;;
50872;SDS011;72604;40.088;18.346;2023-12-20T19:02:33;102.63;;;51.13;;
50872;SDS011;72604;40.088;18.346;2023-12-20T19:06:14;80.00;;;52.08;;
50872;SDS011;72604;40.088;18.346;2023-12-20T19:09:55;88.03;;;59.22;;
50872;SDS011;72604;40.088;18.346;2023-12-20T19:13:36;90.97;;;63.38;;
50872;SDS011;72604;40.088;18.346;2023-12-20T19:17:18;59.92;;;41.53;;
50872;SDS011;72604;40.088;18.346;2023-12-20T19:21:00;78.45;;;46.45;;
50872;SDS011;72604;40.088;18.346;2023-12-20T19:24:43;115.82;;;56.83;;
50872;SDS011;72604;40.088;18.346;2023-12-20T19:28:24;77.00;;;40.75;;
50872;SDS011;72604;40.088;18.346;2023-12-20T19:32:05;102.50;;;48.13;;
50872;SDS011;72604;40.088;18.346;2023-12-20T19:35:48;69.13;;;43.10;;
50872;SDS011;72604;40.088;18.346;2023-12-20T19:39:28;89.78;;;49.78;;
50872;SDS011;72604;40.088;18.346;2023-12-20T19:43:09;101.05;;;62.17;;
50872;SDS011;72604;40.088;18.346;2023-12-20T19:46:50;83.35;;;51.58;;
50872;SDS011;72604;40.088;18.346;2023-12-20T19:50:31;72.85;;;46.72;;
50872;SDS011;72604;40.088;18.346;2023-12-20T19:54:14;78.47;;;49.80;;
50872;SDS011;72604;40.088;18.346;2023-12-20T19:57:54;104.60;;;61.83;;
50872;SDS011;72604;40.088;18.346;2023-12-20T20:01:36;88.88;;;52.47;;
50872;SDS011;72604;40.088;18.346;2023-12-20T20:05:19;133.82;;;91.43;;
50872;SDS011;72604;40.088;18.346;2023-12-20T20:09:01;114.93;;;75.22;;
50872;SDS011;72604;40.088;18.346;2023-12-20T20:12:44;110.80;;;75.82;;
50872;SDS011;72604;40.088;18.346;2023-12-20T20:16:24;123.13;;;82.32;;
50872;SDS011;72604;40.088;18.346;2023-12-20T20:20:06;138.25;;;93.80;;
50872;SDS011;72604;40.088;18.346;2023-12-20T20:23:47;133.45;;;91.90;;
50872;SDS011;72604;40.088;18.346;2023-12-20T20:27:28;146.40;;;102.35;;
50872;SDS011;72604;40.088;18.346;2023-12-20T20:31:10;127.75;;;70.93;;
50872;SDS011;72604;40.088;18.346;2023-12-20T20:34:51;108.53;;;60.88;;
50872;SDS011;72604;40.088;18.346;2023-12-20T20:38:33;151.40;;;84.28;;
50872;SDS011;72604;40.088;18.346;2023-12-20T20:42:15;135.30;;;77.03;;
50872;SDS011;72604;40.088;18.346;2023-12-20T20:45:56;141.25;;;74.85;;
50872;SDS011;72604;40.088;18.346;2023-12-20T20:49:38;125.43;;;67.38;;
50872;SDS011;72604;40.088;18.346;2023-12-20T20:53:19;116.32;;;67.25;;
50872;SDS011;72604;40.088;18.346;2023-12-20T20:57:02;137.55;;;78.80;;
50872;SDS011;72604;40.088;18.346;2023-12-20T21:00:43;137.88;;;82.10;;
50872;SDS011;72604;40.088;18.346;2023-12-20T21:04:24;140.05;;;89.75;;
50872;SDS011;72604;40.088;18.346;2023-12-20T21:08:07;192.93;;;114.95;;
50872;SDS011;72604;40.088;18.346;2023-12-20T21:11:48;145.88;;;94.85;;
50872;SDS011;72604;40.088;18.346;2023-12-20T21:15:29;144.15;;;100.75;;
50872;SDS011;72604;40.088;18.346;2023-12-20T21:19:10;125.10;;;81.93;;